createdAt,value
2018-07-17T00:01:59.834Z,56.25
2018-07-17T00:04:28.358Z,56.33
2018-07-17T00:06:56.923Z,57.20
2018-07-17T00:09:25.485Z,57.93
2018-07-17T00:11:54.715Z,57.40
2018-07-17T00:14:23.286Z,57.44
2018-07-17T00:16:51.752Z,58.09
2018-07-17T00:19:20.327Z,58.16
2018-07-17T00:21:48.827Z,57.99
2018-07-17T00:24:17.401Z,57.50
2018-07-17T00:26:45.834Z,57.55
2018-07-17T00:29:14.285Z,57.28
2018-07-17T00:31:42.887Z,58.12
2018-07-17T00:34:11.452Z,58.40
2018-07-17T00:36:39.894Z,58.08
2018-07-17T00:39:08.636Z,58.20
2018-07-17T00:41:37.161Z,58.67
2018-07-17T00:44:05.694Z,58.44
2018-07-17T00:46:34.233Z,58.59
2018-07-17T00:49:02.721Z,58.78
2018-07-17T00:51:31.199Z,60.27
2018-07-17T00:53:59.764Z,60.42
2018-07-17T00:56:28.200Z,60.10
2018-07-17T00:58:56.620Z,60.54
2018-07-17T01:01:30.519Z,60.38
2018-07-17T01:04:04.185Z,61.19
2018-07-17T01:06:38.039Z,61.46
2018-07-17T01:09:13.133Z,62.11
2018-07-17T01:11:47.041Z,61.58
2018-07-17T01:14:20.505Z,61.25
2018-07-17T01:16:49.005Z,60.67
2018-07-17T01:19:17.451Z,59.98
2018-07-17T01:21:45.965Z,59.98
2018-07-17T01:24:14.392Z,60.63
2018-07-17T01:26:42.845Z,61.66
2018-07-17T01:29:11.291Z,61.28
2018-07-17T01:31:39.761Z,60.78
2018-07-17T01:34:08.260Z,61.03
2018-07-17T01:36:36.733Z,60.47
2018-07-17T01:39:06.555Z,60.09
2018-07-17T01:41:35.019Z,60.68
2018-07-17T01:44:03.562Z,60.19
2018-07-17T01:46:32.119Z,60.59
2018-07-17T01:49:00.680Z,60.45
2018-07-17T01:51:29.168Z,60.25
2018-07-17T01:53:57.870Z,60.66
2018-07-17T01:56:26.309Z,60.72
2018-07-17T01:58:54.773Z,60.91
2018-07-17T02:01:23.911Z,61.58
2018-07-17T02:03:52.403Z,61.76
2018-07-17T02:06:20.888Z,61.57
2018-07-17T02:08:50.580Z,61.13
2018-07-17T02:11:19.073Z,60.68
2018-07-17T02:13:47.554Z,61.55
2018-07-17T02:16:16.181Z,61.79
2018-07-17T02:18:45.330Z,61.98
2018-07-17T02:21:13.955Z,62.02
2018-07-17T02:23:42.607Z,61.91
2018-07-17T02:26:11.074Z,62.41
2018-07-17T02:28:39.556Z,61.90
2018-07-17T02:31:08.358Z,62.97
2018-07-17T02:33:36.836Z,62.24
2018-07-17T02:36:05.447Z,62.69
2018-07-17T02:38:33.887Z,63.30
2018-07-17T02:41:02.385Z,62.88
2018-07-17T02:43:30.915Z,63.58
2018-07-17T02:45:59.444Z,63.54
2018-07-17T02:48:27.885Z,62.73
2018-07-17T02:50:56.440Z,62.92
2018-07-17T02:53:25.004Z,62.75
2018-07-17T02:55:53.630Z,62.48
2018-07-17T02:58:22.100Z,62.20
2018-07-17T03:00:50.645Z,62.93
2018-07-17T03:03:19.229Z,62.97
2018-07-17T03:05:47.693Z,63.07
2018-07-17T03:08:16.221Z,62.75
2018-07-17T03:10:44.795Z,63.01
2018-07-17T03:13:13.268Z,62.91
2018-07-17T03:15:41.721Z,63.10
2018-07-17T03:18:10.159Z,63.37
2018-07-17T03:20:38.716Z,63.02
2018-07-17T03:23:07.195Z,63.30
2018-07-17T03:25:35.637Z,63.25
2018-07-17T03:28:04.168Z,63.39
2018-07-17T03:30:32.736Z,62.97
2018-07-17T03:33:01.324Z,63.26
2018-07-17T03:35:30.421Z,63.68
2018-07-17T03:37:59.109Z,63.64
2018-07-17T03:40:27.577Z,63.68
2018-07-17T03:42:56.169Z,63.93
2018-07-17T03:45:24.698Z,63.98
2018-07-17T03:47:53.225Z,64.07
2018-07-17T03:50:21.823Z,63.98
2018-07-17T03:52:50.353Z,64.05
2018-07-17T03:55:18.856Z,64.19
2018-07-17T03:57:47.351Z,64.59
2018-07-17T04:00:15.871Z,64.76
2018-07-17T04:02:44.369Z,64.75
2018-07-17T04:05:12.905Z,65.17
2018-07-17T04:07:41.393Z,64.98
2018-07-17T04:10:09.871Z,64.90
2018-07-17T04:12:38.314Z,65.16
2018-07-17T04:15:06.764Z,65.21
2018-07-17T04:17:35.338Z,65.38
2018-07-17T04:20:03.945Z,64.92
2018-07-17T04:22:32.560Z,65.25
2018-07-17T04:25:01.065Z,65.06
2018-07-17T04:27:29.549Z,65.11
2018-07-17T04:29:58.025Z,65.01
2018-07-17T04:32:26.544Z,64.88
2018-07-17T04:34:54.980Z,64.77
2018-07-17T04:37:23.520Z,64.37
2018-07-17T04:39:52.024Z,64.62
2018-07-17T04:42:20.542Z,64.46
2018-07-17T04:44:49.041Z,63.92
2018-07-17T04:47:17.509Z,63.43
2018-07-17T04:49:45.988Z,63.48
2018-07-17T04:52:14.468Z,63.17
2018-07-17T04:54:42.964Z,62.92
2018-07-17T04:57:11.694Z,62.96
2018-07-17T04:59:40.232Z,62.23
2018-07-17T05:02:09.057Z,62.25
2018-07-17T05:04:41.635Z,61.67
2018-07-17T05:07:10.289Z,61.72
2018-07-17T05:09:38.906Z,60.85
2018-07-17T05:12:07.480Z,60.65
2018-07-17T05:14:36.044Z,60.55
2018-07-17T05:17:04.519Z,59.75
2018-07-17T05:19:33.103Z,59.42
2018-07-17T05:22:01.541Z,59.17
2018-07-17T05:24:30.059Z,58.48
2018-07-17T05:26:58.586Z,58.56
2018-07-17T05:29:27.062Z,58.31
2018-07-17T05:31:55.667Z,58.00
2018-07-17T05:34:24.356Z,57.65
2018-07-17T05:36:53.120Z,57.32
2018-07-17T05:39:21.575Z,57.32
2018-07-17T05:41:50.063Z,57.10
2018-07-17T05:44:18.539Z,56.36
2018-07-17T05:46:47.009Z,55.89
2018-07-17T05:49:15.443Z,55.49
2018-07-17T05:51:43.987Z,55.41
2018-07-17T05:54:12.453Z,54.96
2018-07-17T05:56:40.870Z,55.13
2018-07-17T05:59:09.333Z,55.02
2018-07-17T06:01:37.804Z,55.03
2018-07-17T06:04:06.318Z,55.06
2018-07-17T06:06:34.757Z,55.41
2018-07-17T06:09:03.229Z,55.90
2018-07-17T06:11:31.739Z,55.82
2018-07-17T06:14:00.324Z,55.77
2018-07-17T06:16:29.006Z,54.83
2018-07-17T06:18:57.464Z,54.71
2018-07-17T06:21:25.951Z,54.17
2018-07-17T06:23:54.477Z,54.67
2018-07-17T06:26:22.920Z,55.00
2018-07-17T06:28:51.416Z,55.24
2018-07-17T06:31:19.948Z,54.74
2018-07-17T06:33:48.540Z,54.33
2018-07-17T06:36:17.085Z,54.00
2018-07-17T06:38:45.549Z,54.13
2018-07-17T06:41:14.121Z,54.19
2018-07-17T06:43:42.638Z,53.93
2018-07-17T06:46:11.184Z,54.58
2018-07-17T06:48:39.670Z,54.24
2018-07-17T06:51:08.128Z,54.06
2018-07-17T06:53:37.652Z,53.94
2018-07-17T06:56:06.196Z,53.70
2018-07-17T06:58:34.756Z,53.36
2018-07-17T07:01:03.251Z,53.13
2018-07-17T07:03:31.701Z,52.88
2018-07-17T07:06:00.838Z,52.28
2018-07-17T07:08:29.385Z,52.02
2018-07-17T07:10:57.944Z,51.93
2018-07-17T07:13:26.438Z,51.84
2018-07-17T07:15:55.024Z,51.79
2018-07-17T07:18:23.591Z,51.50
2018-07-17T07:20:52.090Z,50.55
2018-07-17T07:23:20.751Z,50.48
2018-07-17T07:25:49.910Z,50.10
2018-07-17T07:28:18.452Z,49.71
2018-07-17T07:30:47.039Z,49.78
2018-07-17T07:33:15.517Z,49.11
2018-07-17T07:35:44.872Z,48.44
2018-07-17T07:38:13.525Z,48.35
2018-07-17T07:40:42.127Z,48.18
2018-07-17T07:43:10.878Z,48.53
2018-07-17T07:45:39.400Z,47.89
2018-07-17T07:48:08.061Z,47.06
2018-07-17T07:50:36.508Z,47.44
2018-07-17T07:53:05.240Z,47.22
2018-07-17T07:55:33.809Z,46.72
2018-07-17T07:58:02.377Z,46.64
2018-07-17T08:00:30.845Z,46.57
2018-07-17T08:02:59.266Z,45.90
2018-07-17T08:05:27.826Z,45.88
2018-07-17T08:07:56.299Z,45.84
2018-07-17T08:10:24.737Z,45.79
2018-07-17T08:12:53.259Z,44.67
2018-07-17T08:15:21.738Z,44.36
2018-07-17T08:17:50.196Z,44.53
2018-07-17T08:20:18.705Z,45.05
2018-07-17T08:22:47.328Z,44.23
2018-07-17T08:25:15.865Z,44.58
2018-07-17T08:27:44.412Z,44.12
2018-07-17T08:30:12.901Z,43.85
2018-07-17T08:32:41.434Z,43.92
2018-07-17T08:35:10.237Z,43.25
2018-07-17T08:37:38.714Z,42.75
2018-07-17T08:40:08.443Z,41.94
2018-07-17T08:42:44.897Z,42.19
2018-07-17T08:45:13.469Z,42.53
2018-07-17T08:47:41.918Z,42.60
2018-07-17T08:50:10.427Z,42.00
2018-07-17T08:52:38.923Z,42.06
2018-07-17T08:55:07.502Z,41.63
2018-07-17T08:57:36.081Z,42.00
2018-07-17T09:00:05.174Z,40.85
2018-07-17T09:02:33.657Z,40.21
2018-07-17T09:05:02.241Z,39.72
2018-07-17T09:07:30.737Z,39.46
2018-07-17T09:09:59.182Z,39.77
2018-07-17T09:12:27.681Z,39.16
2018-07-17T09:14:56.227Z,39.58
2018-07-17T09:17:24.742Z,39.40
2018-07-17T09:19:53.226Z,38.89
2018-07-17T09:22:21.740Z,38.52
2018-07-17T09:24:50.402Z,38.98
2018-07-17T09:27:18.964Z,39.07
2018-07-17T09:29:47.429Z,39.20
2018-07-17T09:32:16.051Z,37.97
2018-07-17T09:34:44.510Z,38.30
2018-07-17T09:37:13.010Z,37.42
2018-07-17T09:39:41.474Z,37.10
2018-07-17T09:42:10.008Z,37.09
2018-07-17T09:44:51.147Z,37.29
2018-07-17T09:47:19.585Z,36.48
2018-07-17T09:49:48.145Z,36.10
2018-07-17T09:52:31.838Z,35.85
2018-07-17T09:58:49.552Z,35.21
2018-07-17T10:01:23.253Z,35.01
2018-07-17T10:03:51.780Z,35.75
2018-07-17T10:06:20.427Z,35.37
2018-07-17T10:12:10.227Z,34.20
2018-07-17T10:14:38.812Z,34.45
2018-07-17T10:17:07.333Z,34.52
2018-07-17T10:19:58.031Z,33.85
2018-07-17T10:22:26.527Z,33.87
2018-07-17T10:24:55.026Z,34.17
2018-07-17T10:27:23.465Z,33.94
2018-07-17T10:29:57.145Z,33.92
2018-07-17T10:32:25.631Z,32.77
2018-07-17T10:34:54.129Z,33.16
2018-07-17T10:37:22.571Z,31.83
2018-07-17T10:39:51.356Z,32.19
2018-07-17T10:42:20.128Z,31.47
2018-07-17T10:44:48.700Z,32.08
2018-07-17T10:47:17.227Z,32.53
2018-07-17T10:49:45.765Z,31.91
2018-07-17T10:52:14.242Z,31.84
2018-07-17T10:55:04.173Z,31.58
2018-07-17T10:57:32.701Z,31.46
2018-07-17T11:00:01.216Z,31.55
2018-07-17T11:02:29.763Z,31.16
2018-07-17T11:04:58.246Z,30.98
2018-07-17T11:07:26.729Z,29.83
2018-07-17T11:09:55.242Z,29.98
2018-07-17T11:12:35.484Z,29.80
2018-07-17T11:15:04.296Z,29.81
2018-07-17T11:17:33.030Z,29.43
2018-07-17T11:20:01.517Z,28.22
2018-07-17T11:22:30.159Z,28.60
2018-07-17T11:24:58.692Z,28.95
2018-07-17T11:27:30.862Z,28.00
2018-07-17T11:29:59.761Z,28.00
2018-07-17T11:32:28.231Z,28.10
2018-07-17T11:35:27.417Z,27.56
2018-07-17T11:37:56.032Z,27.51
2018-07-17T11:40:24.707Z,26.68
2018-07-17T11:42:53.232Z,26.05
2018-07-17T11:45:21.778Z,26.46
2018-07-17T11:48:03.815Z,25.96
2018-07-17T11:50:32.335Z,25.36
2018-07-17T11:53:02.897Z,24.68
2018-07-17T11:55:31.877Z,24.29
2018-07-17T11:58:00.485Z,24.63
2018-07-17T12:00:29.187Z,24.27
2018-07-17T12:02:57.722Z,24.44
2018-07-17T12:05:26.253Z,23.74
2018-07-17T12:07:55.089Z,23.29
2018-07-17T12:10:23.617Z,23.79
2018-07-17T12:12:52.419Z,23.18
2018-07-17T12:15:20.904Z,23.69
2018-07-17T12:17:57.439Z,23.00
2018-07-17T12:20:26.130Z,23.08
2018-07-17T12:22:54.476Z,23.25
2018-07-17T12:25:23.009Z,24.12
2018-07-17T12:27:51.545Z,24.37
2018-07-17T12:30:20.063Z,24.71
2018-07-17T12:32:48.616Z,24.43
2018-07-17T12:35:17.181Z,23.87
2018-07-17T12:37:45.653Z,23.83
2018-07-17T12:40:14.198Z,23.66
2018-07-17T12:42:46.014Z,24.08
2018-07-17T12:45:14.567Z,24.70
2018-07-17T12:47:43.101Z,25.43
2018-07-17T12:50:11.633Z,25.57
2018-07-17T12:52:40.210Z,24.88
2018-07-17T12:55:35.176Z,24.40
2018-07-17T12:58:03.732Z,23.47
2018-07-17T13:00:32.231Z,23.62
2018-07-17T13:03:00.802Z,23.10
2018-07-17T13:05:29.393Z,23.19
2018-07-17T13:07:57.971Z,22.98
2018-07-17T13:10:26.436Z,23.37
2018-07-17T13:12:54.923Z,22.28
2018-07-17T13:15:23.402Z,23.67
2018-07-17T13:17:51.946Z,24.76
2018-07-17T13:20:20.482Z,24.11
2018-07-17T13:22:49.075Z,24.89
2018-07-17T13:25:17.649Z,24.47
2018-07-17T13:27:46.113Z,25.36
2018-07-17T13:30:14.699Z,26.82
2018-07-17T13:32:43.280Z,27.79
2018-07-17T13:35:11.960Z,29.11
2018-07-17T13:37:40.412Z,29.75
2018-07-17T13:40:09.250Z,30.58
2018-07-17T13:42:37.808Z,30.01
2018-07-17T13:45:06.645Z,28.85
2018-07-17T13:47:35.173Z,27.93
2018-07-17T13:50:03.774Z,28.68
2018-07-17T13:52:32.232Z,29.21
2018-07-17T13:55:00.733Z,29.62
2018-07-17T13:57:29.630Z,29.75
2018-07-17T13:59:58.274Z,30.17
2018-07-17T14:02:26.742Z,29.85
2018-07-17T14:04:55.288Z,30.21
2018-07-17T14:07:23.866Z,30.18
2018-07-17T14:09:52.548Z,31.18
2018-07-17T14:12:21.073Z,30.57
2018-07-17T14:14:56.950Z,30.63
2018-07-17T14:17:25.522Z,29.46
2018-07-17T14:19:54.105Z,29.14
2018-07-17T14:22:22.726Z,29.65
2018-07-17T14:24:51.197Z,28.97
2018-07-17T14:27:19.638Z,29.25
2018-07-17T14:29:48.193Z,29.62
2018-07-17T14:32:16.650Z,30.11
2018-07-17T14:34:45.163Z,29.37
2018-07-17T14:37:13.622Z,28.88
2018-07-17T14:39:42.121Z,28.22
2018-07-17T14:42:10.676Z,28.17
2018-07-17T14:44:39.302Z,28.04
2018-07-17T14:47:07.760Z,27.64
2018-07-17T14:49:36.324Z,28.29
2018-07-17T14:52:05.111Z,28.88
2018-07-17T14:54:33.617Z,28.84
2018-07-17T14:57:02.291Z,28.69
2018-07-17T14:59:30.770Z,28.20
2018-07-17T15:01:59.246Z,28.66
2018-07-17T15:04:27.723Z,29.22
2018-07-17T15:06:56.297Z,29.28
2018-07-17T15:09:24.876Z,28.69
2018-07-17T15:11:53.384Z,29.06
2018-07-17T15:14:22.069Z,28.98
2018-07-17T15:16:50.729Z,29.03
2018-07-17T15:19:19.244Z,29.28
2018-07-17T15:21:51.857Z,29.24
2018-07-17T15:24:20.324Z,29.07
2018-07-17T15:26:48.858Z,28.92
2018-07-17T15:29:21.024Z,28.88
2018-07-17T15:32:19.929Z,28.94
2018-07-17T15:34:48.404Z,29.04
2018-07-17T15:37:17.028Z,29.50
2018-07-17T15:39:45.558Z,28.80
2018-07-17T15:42:14.356Z,28.80
2018-07-17T15:44:42.850Z,28.69
2018-07-17T15:47:11.634Z,28.60
2018-07-17T15:49:40.132Z,28.29
2018-07-17T15:52:08.685Z,28.56
2018-07-17T15:54:38.281Z,29.33
2018-07-17T15:57:06.872Z,30.36
2018-07-17T15:59:35.325Z,30.73
2018-07-17T16:02:03.785Z,30.98
2018-07-17T16:04:32.343Z,30.86
2018-07-17T16:07:01.110Z,30.58
2018-07-17T16:09:29.561Z,31.23
2018-07-17T16:11:58.059Z,31.10
2018-07-17T16:14:26.741Z,30.62
2018-07-17T16:16:55.129Z,29.68
2018-07-17T16:19:24.565Z,29.52
2018-07-17T16:21:53.107Z,30.10
2018-07-17T16:24:21.765Z,30.57
2018-07-17T16:26:50.287Z,31.56
2018-07-17T16:29:18.762Z,31.86
2018-07-17T16:31:47.243Z,32.13
2018-07-17T16:34:15.751Z,32.54
2018-07-17T16:36:44.326Z,33.12
2018-07-17T16:39:12.780Z,34.23
2018-07-17T16:41:41.267Z,33.98
2018-07-17T16:44:09.714Z,34.29
2018-07-17T16:46:38.656Z,35.01
2018-07-17T16:49:07.231Z,34.69
2018-07-17T16:51:35.785Z,34.66
2018-07-17T16:54:04.236Z,34.94
2018-07-17T16:56:32.967Z,35.22
2018-07-17T16:59:01.449Z,35.22
2018-07-17T17:01:29.877Z,35.77
2018-07-17T17:03:58.437Z,36.17
2018-07-17T17:06:26.915Z,36.87
2018-07-17T17:08:55.536Z,37.71
2018-07-17T17:11:24.289Z,38.51
2018-07-17T17:13:52.873Z,39.10
2018-07-17T17:16:21.481Z,39.87
2018-07-17T17:18:50.037Z,39.79
2018-07-17T17:21:18.607Z,40.24
2018-07-17T17:23:47.236Z,39.97
2018-07-17T17:26:15.792Z,39.39
2018-07-17T17:28:44.286Z,39.26
2018-07-17T17:31:14.893Z,38.51
2018-07-17T17:33:43.372Z,38.72
2018-07-17T17:36:12.139Z,38.36
2018-07-17T17:38:40.652Z,38.25
2018-07-17T17:41:09.085Z,38.02
2018-07-17T17:43:38.632Z,37.36
2018-07-17T17:46:07.122Z,37.76
2018-07-17T17:48:36.338Z,37.51
2018-07-17T17:51:08.788Z,38.07
2018-07-17T17:53:37.245Z,38.34
2018-07-17T17:56:05.796Z,38.07
2018-07-17T17:58:34.536Z,38.42
2018-07-17T18:01:10.311Z,38.50
2018-07-17T18:03:38.732Z,38.69
2018-07-17T18:06:07.198Z,38.28
2018-07-17T18:08:35.637Z,38.59
2018-07-17T18:11:04.101Z,39.39
2018-07-17T18:13:32.575Z,39.38
2018-07-17T18:16:01.188Z,39.42
2018-07-17T18:18:29.803Z,39.55
2018-07-17T18:20:58.216Z,40.35
2018-07-17T18:23:26.705Z,40.24
2018-07-17T18:25:55.153Z,40.77
2018-07-17T18:28:23.734Z,41.50
2018-07-17T18:30:52.205Z,41.73
2018-07-17T18:33:20.739Z,41.61
2018-07-17T18:35:49.186Z,42.33
2018-07-17T18:38:18.122Z,42.95
2018-07-17T18:40:46.614Z,43.18
2018-07-17T18:43:15.046Z,43.14
2018-07-17T18:45:43.771Z,43.38
2018-07-17T18:48:12.321Z,43.15
2018-07-17T18:50:41.132Z,43.12
2018-07-17T18:53:09.609Z,42.58
2018-07-17T18:55:50.536Z,42.60
2018-07-17T18:58:18.962Z,42.89
2018-07-17T19:00:48.108Z,43.18
2018-07-17T19:03:16.774Z,43.43
2018-07-17T19:05:45.365Z,43.33
2018-07-17T19:08:14.115Z,43.18
2018-07-17T19:10:44.350Z,43.40
2018-07-17T19:13:12.843Z,42.88
2018-07-17T19:15:41.400Z,43.22
2018-07-17T19:18:10.005Z,42.84
2018-07-17T19:20:38.479Z,42.73
2018-07-17T19:23:07.738Z,42.82
2018-07-17T19:25:36.916Z,42.83
2018-07-17T19:28:05.500Z,42.94
2018-07-17T19:30:33.973Z,42.90
2018-07-17T19:33:02.530Z,42.47
2018-07-17T19:35:31.142Z,42.63
2018-07-17T19:37:59.696Z,42.52
2018-07-17T19:40:28.138Z,42.64
2018-07-17T19:42:56.654Z,42.95
2018-07-17T19:45:25.094Z,43.59
2018-07-17T19:47:53.657Z,43.90
2018-07-17T19:50:22.191Z,44.02
2018-07-17T19:52:50.769Z,44.38
2018-07-17T19:55:19.380Z,44.46
2018-07-17T19:57:47.897Z,44.83
2018-07-17T20:00:17.578Z,45.10
2018-07-17T20:02:46.169Z,45.17
2018-07-17T20:05:14.780Z,46.03
2018-07-17T20:07:43.250Z,46.38
2018-07-17T20:10:11.815Z,46.55
2018-07-17T20:13:12.755Z,46.17
2018-07-17T20:15:41.285Z,46.88
2018-07-17T20:18:09.800Z,47.08
2018-07-17T20:20:38.409Z,47.27
2018-07-17T20:23:06.923Z,46.93
2018-07-17T20:25:35.488Z,47.64
2018-07-17T20:28:04.033Z,48.47
2018-07-17T20:30:32.778Z,48.87
2018-07-17T20:33:01.248Z,49.04
2018-07-17T20:35:29.766Z,49.25
2018-07-17T20:37:58.236Z,49.13
2018-07-17T20:40:26.728Z,49.53
2018-07-17T20:42:55.249Z,50.29
2018-07-17T20:45:23.861Z,51.12
2018-07-17T20:47:52.338Z,51.57
2018-07-17T20:50:28.918Z,51.78
2018-07-17T20:52:57.551Z,51.78
2018-07-17T20:55:26.045Z,51.64
2018-07-17T20:57:54.845Z,52.50
2018-07-17T21:00:23.339Z,52.84
2018-07-17T21:02:52.220Z,53.09
2018-07-17T21:05:20.798Z,53.98
2018-07-17T21:07:49.268Z,53.89
2018-07-17T21:10:17.754Z,54.00
2018-07-17T21:12:46.222Z,53.71
2018-07-17T21:15:14.741Z,54.23
2018-07-17T21:17:47.208Z,54.08
2018-07-17T21:20:15.764Z,54.34
2018-07-17T21:22:44.289Z,54.35
2018-07-17T21:28:31.012Z,56.08
2018-07-17T21:30:59.638Z,56.28
2018-07-17T21:33:28.406Z,57.41
2018-07-17T21:35:57.088Z,56.94
2018-07-17T21:38:25.641Z,57.09
2018-07-17T21:40:54.219Z,57.47
2018-07-17T21:43:22.811Z,57.91
2018-07-17T21:45:51.284Z,58.39
2018-07-17T21:48:20.002Z,58.33
2018-07-17T21:50:48.766Z,58.31
2018-07-17T21:53:17.236Z,59.49
2018-07-17T21:55:45.943Z,60.04
2018-07-17T21:58:14.509Z,59.63
2018-07-17T22:00:52.928Z,59.60
2018-07-17T22:03:28.595Z,59.74
2018-07-17T22:05:57.268Z,60.25
2018-07-17T22:08:25.861Z,59.77
2018-07-17T22:10:54.467Z,60.58
2018-07-17T22:13:23.090Z,61.19
2018-07-17T22:15:51.685Z,62.13
2018-07-17T22:18:20.154Z,62.57
2018-07-17T22:20:48.599Z,62.64
2018-07-17T22:23:17.443Z,63.13
2018-07-17T22:25:45.931Z,63.15
2018-07-17T22:28:14.653Z,63.68
2018-07-17T22:30:43.153Z,63.24
2018-07-17T22:33:22.684Z,63.96
2018-07-17T22:35:51.181Z,64.41
2018-07-17T22:38:19.753Z,64.56
2018-07-17T22:40:48.275Z,64.42
2018-07-17T22:43:17.649Z,64.54
2018-07-17T22:45:46.203Z,65.07
2018-07-17T22:48:14.664Z,64.45
2018-07-17T22:50:43.138Z,63.95
2018-07-17T22:53:11.925Z,65.43
2018-07-17T22:55:40.552Z,65.57
2018-07-17T22:58:10.137Z,65.93
2018-07-17T23:00:51.765Z,66.85
2018-07-17T23:03:20.300Z,66.97
2018-07-17T23:05:48.773Z,66.12
2018-07-17T23:08:17.252Z,65.14
2018-07-17T23:10:45.941Z,65.69
2018-07-17T23:13:15.006Z,67.09
2018-07-17T23:15:43.515Z,67.93
2018-07-17T23:18:12.061Z,68.01
2018-07-17T23:20:40.575Z,68.22
2018-07-17T23:23:09.055Z,67.58
2018-07-17T23:25:37.524Z,67.15
2018-07-17T23:28:06.021Z,68.08
2018-07-17T23:30:34.507Z,68.34
2018-07-17T23:33:03.000Z,68.59
2018-07-17T23:35:31.433Z,68.67
2018-07-17T23:37:59.862Z,69.45
2018-07-17T23:40:28.365Z,69.02
2018-07-17T23:42:56.801Z,69.03
2018-07-17T23:45:25.293Z,69.54
2018-07-17T23:47:53.771Z,70.09
2018-07-17T23:50:22.181Z,69.44
2018-07-17T23:52:50.623Z,69.84
2018-07-17T23:55:19.100Z,69.29
2018-07-17T23:57:47.528Z,69.41
